createdAt,value
2023-04-14T00:00:05.258Z,31.97
2023-04-14T00:01:06.183Z,31.03
2023-04-14T00:02:06.461Z,28.39
2023-04-14T00:03:06.578Z,29.50
2023-04-14T00:04:06.476Z,31.00
2023-04-14T00:05:05.537Z,29.79
2023-04-14T00:06:06.507Z,29.91
2023-04-14T00:07:05.545Z,29.30
2023-04-14T00:08:05.613Z,26.95
2023-04-14T00:09:05.662Z,30.04
2023-04-14T00:10:06.733Z,29.23
2023-04-14T00:11:06.865Z,26.45
2023-04-14T00:12:06.921Z,27.97
2023-04-14T00:13:06.887Z,26.93
2023-04-14T00:14:06.961Z,26.28
2023-04-14T00:15:07.014Z,26.32
2023-04-14T00:16:07.132Z,30.94
2023-04-14T00:17:06.233Z,31.12
2023-04-14T00:18:07.254Z,27.71
2023-04-14T00:19:07.303Z,26.61
2023-04-14T00:20:06.355Z,27.72
2023-04-14T00:21:06.360Z,29.32
2023-04-14T00:22:06.481Z,26.71
2023-04-14T00:23:07.543Z,28.37
2023-04-14T00:24:07.582Z,32.42
2023-04-14T00:25:07.591Z,30.79
2023-04-14T00:26:07.756Z,30.12
2023-04-14T00:27:06.851Z,28.49
2023-04-14T00:28:07.865Z,30.01
2023-04-14T00:29:07.878Z,27.31
2023-04-14T00:30:07.916Z,29.60
2023-04-14T00:31:08.027Z,27.04
2023-04-14T00:32:08.136Z,27.06
2023-04-14T00:33:07.128Z,32.38
2023-04-14T00:34:07.180Z,32.22
2023-04-14T00:35:08.238Z,30.68
2023-04-14T00:36:08.284Z,28.19
2023-04-14T00:37:08.365Z,31.96
2023-04-14T00:38:08.444Z,30.86
2023-04-14T00:39:07.523Z,30.32
2023-04-14T00:40:07.596Z,28.13
2023-04-14T00:41:08.731Z,29.62
2023-04-14T00:42:08.681Z,29.43
2023-04-14T00:43:08.799Z,31.85
2023-04-14T00:44:08.849Z,29.72
2023-04-14T00:45:07.847Z,28.53
2023-04-14T00:46:08.932Z,30.44
2023-04-14T00:47:09.022Z,26.07
2023-04-14T00:48:09.038Z,30.65
2023-04-14T00:49:09.056Z,31.26
2023-04-14T00:50:08.132Z,30.87
2023-04-14T00:51:09.211Z,29.97
2023-04-14T00:52:08.255Z,28.33
2023-04-14T00:53:08.300Z,30.48
2023-04-14T00:54:09.358Z,30.61
2023-04-14T00:55:09.414Z,25.07
2023-04-14T00:56:09.455Z,26.87
2023-04-14T00:57:09.523Z,31.60
2023-04-14T00:58:09.608Z,26.99
2023-04-14T00:59:08.637Z,32.78
2023-04-14T01:00:09.688Z,31.98
2023-04-14T01:01:09.755Z,30.61
2023-04-14T01:02:09.926Z,30.11
2023-04-14T01:03:10.045Z,29.45
2023-04-14T01:04:10.039Z,28.15
2023-04-14T01:05:10.064Z,28.01
2023-04-14T01:06:10.053Z,31.28
2023-04-14T01:07:09.124Z,30.17
2023-04-14T01:08:10.180Z,27.63
2023-04-14T01:09:10.213Z,32.25
2023-04-14T01:10:10.297Z,32.61
2023-04-14T01:11:09.329Z,29.75
2023-04-14T01:12:10.370Z,35.56
2023-04-14T01:13:10.421Z,32.81
2023-04-14T01:14:09.444Z,36.18
2023-04-14T01:15:09.628Z,32.54
2023-04-14T01:16:10.564Z,33.35
2023-04-14T01:17:09.606Z,33.01
2023-04-14T01:18:09.611Z,31.13
2023-04-14T01:19:10.621Z,32.64
2023-04-14T01:20:10.671Z,29.49
2023-04-14T01:21:09.676Z,27.95
2023-04-14T01:22:10.785Z,31.69
2023-04-14T01:23:10.726Z,31.43
2023-04-14T01:24:09.742Z,29.35
2023-04-14T01:25:09.724Z,31.14
2023-04-14T01:26:10.769Z,29.32
2023-04-14T01:27:10.798Z,31.23
2023-04-14T01:28:10.818Z,27.76
2023-04-14T01:29:10.797Z,30.43
2023-04-14T01:30:09.812Z,28.27
2023-04-14T01:31:09.857Z,28.97
2023-04-14T01:32:09.847Z,31.36
2023-04-14T01:33:10.936Z,28.30
2023-04-14T01:34:09.846Z,32.59
2023-04-14T01:35:10.862Z,29.34
2023-04-14T01:36:10.904Z,30.71
2023-04-14T01:37:10.879Z,30.04
2023-04-14T01:38:10.913Z,30.43
2023-04-14T01:39:10.916Z,27.98
2023-04-14T01:40:10.925Z,30.05
2023-04-14T01:41:10.904Z,29.39
2023-04-14T01:42:10.934Z,26.94
2023-04-14T01:43:10.932Z,30.19
2023-04-14T01:44:10.897Z,31.54
2023-04-14T01:45:10.003Z,32.11
2023-04-14T01:46:09.940Z,26.90
2023-04-14T01:47:10.891Z,33.79
2023-04-14T01:48:10.965Z,30.21
2023-04-14T01:49:11.033Z,31.03
2023-04-14T01:50:09.982Z,30.49
2023-04-14T01:51:09.947Z,30.65
2023-04-14T01:52:10.993Z,30.03
2023-04-14T01:53:11.010Z,33.03
2023-04-14T01:54:11.010Z,28.27
2023-04-14T01:55:11.006Z,30.36
2023-04-14T01:56:11.040Z,30.09
2023-04-14T01:57:10.070Z,28.35
2023-04-14T01:58:11.145Z,31.14
2023-04-14T01:59:10.146Z,29.76
2023-04-14T02:00:10.200Z,32.13
2023-04-14T02:01:11.269Z,31.04
2023-04-14T02:02:11.321Z,25.99
2023-04-14T02:03:10.377Z,25.00
2023-04-14T02:04:10.492Z,31.14
2023-04-14T02:05:11.462Z,29.39
2023-04-14T02:06:11.509Z,33.88
2023-04-14T02:07:10.559Z,35.35
2023-04-14T02:08:11.671Z,30.18
2023-04-14T02:09:10.705Z,32.91
2023-04-14T02:10:10.795Z,34.55
2023-04-14T02:11:10.804Z,26.16
2023-04-14T02:12:10.861Z,31.24
2023-04-14T02:13:11.920Z,29.71
2023-04-14T02:14:11.996Z,28.17
2023-04-14T02:15:11.059Z,34.23
2023-04-14T02:16:12.176Z,28.46
2023-04-14T02:17:11.167Z,34.75
2023-04-14T02:18:12.211Z,30.77
2023-04-14T02:19:12.265Z,30.31
2023-04-14T02:20:12.331Z,27.48
2023-04-14T02:21:12.376Z,27.27
2023-04-14T02:22:11.424Z,29.38
2023-04-14T02:23:12.524Z,30.02
2023-04-14T02:24:11.556Z,27.28
2023-04-14T02:25:11.576Z,27.99
2023-04-14T02:26:11.930Z,30.93
2023-04-14T02:27:11.701Z,28.77
2023-04-14T02:28:12.765Z,30.08
2023-04-14T02:29:11.769Z,27.56
2023-04-14T02:30:11.850Z,27.09
2023-04-14T02:31:12.919Z,27.22
2023-04-14T02:32:11.862Z,26.58
2023-04-14T02:33:12.977Z,29.25
2023-04-14T02:34:12.991Z,26.46
2023-04-14T02:35:13.010Z,30.47
2023-04-14T02:36:13.013Z,28.24
2023-04-14T02:37:13.054Z,30.14
2023-04-14T02:38:13.087Z,27.26
2023-04-14T02:39:12.138Z,28.77
2023-04-14T02:40:13.217Z,27.04
2023-04-14T02:41:13.218Z,29.15
2023-04-14T02:42:13.238Z,27.95
2023-04-14T02:43:12.282Z,31.08
2023-04-14T02:44:13.317Z,26.13
2023-04-14T02:45:13.368Z,29.52
2023-04-14T02:46:13.465Z,30.43
2023-04-14T02:47:12.441Z,27.69
2023-04-14T02:48:13.472Z,29.74
2023-04-14T02:49:13.067Z,29.46
2023-04-14T02:50:12.562Z,31.37
2023-04-14T02:51:13.621Z,27.56
2023-04-14T02:52:12.642Z,29.25
2023-04-14T02:53:13.672Z,29.71
2023-04-14T02:54:12.805Z,28.27
2023-04-14T02:55:13.787Z,27.25
2023-04-14T02:56:13.808Z,26.67
2023-04-14T02:57:13.828Z,27.55
2023-04-14T02:58:12.875Z,27.32
2023-04-14T02:59:14.010Z,30.46
2023-04-14T03:00:13.947Z,31.06
2023-04-14T03:01:14.013Z,28.69
2023-04-14T03:02:13.233Z,32.08
2023-04-14T03:03:13.124Z,31.11
2023-04-14T03:04:13.237Z,26.37
2023-04-14T03:05:14.186Z,29.04
2023-04-14T03:06:13.250Z,31.00
2023-04-14T03:07:14.197Z,28.13
2023-04-14T03:08:14.266Z,29.99
2023-04-14T03:09:14.321Z,29.66
2023-04-14T03:10:14.363Z,30.48
2023-04-14T03:11:14.379Z,29.46
2023-04-14T03:12:13.383Z,31.78
2023-04-14T03:13:14.407Z,29.54
2023-04-14T03:14:14.442Z,27.94
2023-04-14T03:15:14.505Z,29.74
2023-04-14T03:16:14.550Z,32.13
2023-04-14T03:17:14.552Z,30.04
2023-04-14T03:18:14.600Z,28.28
2023-04-14T03:19:13.640Z,31.70
2023-04-14T03:20:14.666Z,29.41
2023-04-14T03:21:13.692Z,29.29
2023-04-14T03:22:13.733Z,30.03
2023-04-14T03:23:14.788Z,28.04
2023-04-14T03:24:14.830Z,28.86
2023-04-14T03:26:33.241Z,25.00
2023-04-14T03:27:34.194Z,25.00
2023-04-14T03:28:35.516Z,25.00
2023-04-14T03:29:33.098Z,25.00
2023-04-14T03:30:33.981Z,25.00
2023-04-14T03:31:34.046Z,25.00
2023-04-14T03:32:33.977Z,25.00
2023-04-14T03:33:34.069Z,25.00
2023-04-14T03:34:32.946Z,25.00
2023-04-14T03:35:33.979Z,27.99
2023-04-14T03:36:33.924Z,28.66
2023-04-14T03:37:33.961Z,25.00
2023-04-14T03:38:33.925Z,27.53
2023-04-14T03:39:32.919Z,28.67
2023-04-14T03:40:33.955Z,25.67
2023-04-14T03:41:32.870Z,25.92
2023-04-14T03:42:32.876Z,25.00
2023-04-14T03:43:33.904Z,25.33
2023-04-14T03:44:33.870Z,31.42
2023-04-14T03:45:32.867Z,29.73
2023-04-14T03:46:33.907Z,28.40
2023-04-14T03:47:33.858Z,29.00
2023-04-14T03:48:33.830Z,26.04
2023-04-14T03:49:33.846Z,28.39
2023-04-14T03:50:32.797Z,28.98
2023-04-14T03:51:32.835Z,29.56
2023-04-14T03:52:33.814Z,29.46
2023-04-14T03:53:33.790Z,28.48
2023-04-14T03:54:33.807Z,28.19
2023-04-14T03:55:33.781Z,31.65
2023-04-14T03:56:33.783Z,28.36
2023-04-14T03:57:33.772Z,27.10
2023-04-14T03:58:33.792Z,27.29
2023-04-14T03:59:33.874Z,28.32
2023-04-14T04:00:33.884Z,28.54
2023-04-14T04:01:32.903Z,26.47
2023-04-14T04:02:33.136Z,29.39
2023-04-14T04:03:33.332Z,30.08
2023-04-14T04:04:34.161Z,29.79
2023-04-14T04:05:34.063Z,29.21
2023-04-14T04:06:34.118Z,29.60
2023-04-14T04:07:33.157Z,29.30
2023-04-14T04:08:34.229Z,26.77
2023-04-14T04:09:33.301Z,29.19
2023-04-14T04:10:33.328Z,30.32
2023-04-14T04:11:33.373Z,30.58
2023-04-14T04:12:34.414Z,30.08
2023-04-14T04:13:34.440Z,30.83
2023-04-14T04:14:34.732Z,30.17
2023-04-14T04:15:33.529Z,29.37
2023-04-14T04:16:34.616Z,31.52
2023-04-14T04:17:33.685Z,29.29
2023-04-14T04:18:34.694Z,31.06
2023-04-14T04:19:34.764Z,29.67
2023-04-14T04:20:34.791Z,28.91
2023-04-14T04:21:34.764Z,30.15
2023-04-14T04:22:34.811Z,28.78
2023-04-14T04:23:33.854Z,28.23
2023-04-14T04:24:33.917Z,30.03
2023-04-14T04:25:33.970Z,31.59
2023-04-14T04:26:36.332Z,29.12
2023-04-14T04:27:34.163Z,27.73
2023-04-14T04:28:34.217Z,29.94
2023-04-14T04:29:34.263Z,27.26
2023-04-14T04:30:35.380Z,28.78
2023-04-14T04:31:34.444Z,26.54
2023-04-14T04:32:34.437Z,32.04
2023-04-14T04:33:35.495Z,30.13
2023-04-14T04:34:35.527Z,29.28
2023-04-14T04:35:34.574Z,26.19
2023-04-14T04:36:35.651Z,29.16
2023-04-14T04:37:34.679Z,27.62
2023-04-14T04:38:35.718Z,27.19
2023-04-14T04:39:35.777Z,27.22
2023-04-14T04:40:36.198Z,26.50
2023-04-14T04:41:36.180Z,30.06
2023-04-14T04:42:35.923Z,27.68
2023-04-14T04:43:36.024Z,30.11
2023-04-14T04:44:35.030Z,30.35
2023-04-14T04:45:36.110Z,32.71
2023-04-14T04:46:36.254Z,29.07
2023-04-14T04:47:36.229Z,28.60
2023-04-14T04:48:36.303Z,30.83
2023-04-14T04:49:36.520Z,30.72
2023-04-14T04:50:36.383Z,30.04
2023-04-14T04:51:35.399Z,30.49
2023-04-14T04:52:36.473Z,30.61
2023-04-14T04:53:35.500Z,27.73
2023-04-14T04:54:35.553Z,28.82
2023-04-14T04:55:36.641Z,30.54
2023-04-14T04:56:35.649Z,30.18
2023-04-14T04:57:35.707Z,29.63
2023-04-14T04:58:36.760Z,29.11
2023-04-14T04:59:38.060Z,30.66
2023-04-14T05:00:35.937Z,33.58
2023-04-14T05:01:36.994Z,32.24
2023-04-14T05:02:37.149Z,30.46
2023-04-14T05:03:37.115Z,30.58
2023-04-14T05:04:37.176Z,28.88
2023-04-14T05:05:36.205Z,31.32
2023-04-14T05:06:36.276Z,29.25
2023-04-14T05:07:36.281Z,29.99
2023-04-14T05:08:36.363Z,28.85
2023-04-14T05:09:37.369Z,32.07
2023-04-14T05:10:36.485Z,30.92
2023-04-14T05:11:36.493Z,27.37
2023-04-14T05:12:37.560Z,31.33
2023-04-14T05:13:36.585Z,31.01
2023-04-14T05:14:36.690Z,30.27
2023-04-14T05:15:36.696Z,26.91
2023-04-14T05:16:37.734Z,29.71
2023-04-14T05:17:37.878Z,27.94
2023-04-14T05:18:36.942Z,30.35
2023-04-14T05:19:37.963Z,33.52
2023-04-14T05:20:36.973Z,28.66
2023-04-14T05:21:38.083Z,28.09
2023-04-14T05:22:37.075Z,29.66
2023-04-14T05:23:37.125Z,29.50
2023-04-14T05:24:37.310Z,30.38
2023-04-14T05:25:37.270Z,28.11
2023-04-14T05:26:54.817Z,28.98
2023-04-14T05:27:38.644Z,29.33
2023-04-14T05:28:37.475Z,31.07
2023-04-14T05:29:38.292Z,32.66
2023-04-14T05:30:38.300Z,34.36
2023-04-14T05:31:38.348Z,37.46
2023-04-14T05:32:38.305Z,41.83
2023-04-14T05:33:37.220Z,44.34
2023-04-14T05:34:38.249Z,51.87
2023-04-14T05:35:38.209Z,56.61
2023-04-14T05:36:38.238Z,52.61
2023-04-14T05:37:37.233Z,61.04
2023-04-14T05:38:37.217Z,64.34
2023-04-14T05:39:38.280Z,69.59
2023-04-14T05:40:37.199Z,79.37
2023-04-14T05:41:38.217Z,93.85
2023-04-14T05:42:38.170Z,98.94
2023-04-14T05:43:37.524Z,116.59
2023-04-14T05:44:38.156Z,117.31
2023-04-14T05:45:38.145Z,129.09
2023-04-14T05:46:37.313Z,129.62
2023-04-14T05:47:38.225Z,138.11
2023-04-14T05:48:38.205Z,157.93
2023-04-14T05:49:38.204Z,169.37
2023-04-14T05:50:38.132Z,168.12
2023-04-14T05:51:37.090Z,171.73
2023-04-14T05:52:38.148Z,195.93
2023-04-14T05:53:38.097Z,194.64
2023-04-14T05:54:38.118Z,202.46
2023-04-14T05:55:38.149Z,206.12
2023-04-14T05:56:38.090Z,229.51
2023-04-14T05:57:38.147Z,247.51
2023-04-14T05:58:38.182Z,248.42
2023-04-14T05:59:38.226Z,232.99
2023-04-14T06:00:37.770Z,237.89
2023-04-14T06:01:37.386Z,249.11
2023-04-14T06:02:37.441Z,255.33
2023-04-14T06:03:40.068Z,245.28
2023-04-14T06:04:38.593Z,243.63
2023-04-14T06:05:37.389Z,242.57
2023-04-14T06:06:38.396Z,245.33
2023-04-14T06:07:37.394Z,246.37
2023-04-14T06:08:38.382Z,247.33
2023-04-14T06:09:37.368Z,241.31
2023-04-14T06:10:37.370Z,244.60
2023-04-14T06:11:38.340Z,234.00
2023-04-14T06:12:37.334Z,227.66
2023-04-14T06:13:38.401Z,217.87
2023-04-14T06:14:38.344Z,129.16
2023-04-14T06:15:38.341Z,80.68
2023-04-14T06:16:38.361Z,74.83
2023-04-14T06:17:38.407Z,53.84
2023-04-14T06:18:37.290Z,68.30
2023-04-14T06:19:38.293Z,108.89
2023-04-14T06:20:38.299Z,140.43
2023-04-14T06:21:37.293Z,128.91
2023-04-14T06:22:37.308Z,127.98
2023-04-14T06:23:38.257Z,127.12
2023-04-14T06:24:39.143Z,127.13
2023-04-14T06:25:37.295Z,127.69
2023-04-14T06:26:37.248Z,128.49
2023-04-14T06:27:37.282Z,131.55
2023-04-14T06:28:38.258Z,131.86
2023-04-14T06:29:37.307Z,135.39
2023-04-14T06:30:38.213Z,134.34
2023-04-14T06:31:41.185Z,134.48
2023-04-14T06:32:37.269Z,134.69
2023-04-14T06:33:38.227Z,135.17
2023-04-14T06:34:38.208Z,136.81
2023-04-14T06:35:38.311Z,142.37
2023-04-14T06:36:38.257Z,145.32
2023-04-14T06:37:38.183Z,146.67
2023-04-14T06:38:38.223Z,152.42
2023-04-14T06:39:38.211Z,154.15
2023-04-14T06:40:37.175Z,156.34
2023-04-14T06:41:38.149Z,161.73
2023-04-14T06:42:37.138Z,164.43
2023-04-14T06:43:38.205Z,169.86
2023-04-14T06:44:38.160Z,170.40
2023-04-14T06:45:37.230Z,172.55
2023-04-14T06:46:38.298Z,173.58
2023-04-14T06:47:38.868Z,176.83
2023-04-14T06:48:38.156Z,179.90
2023-04-14T06:49:38.202Z,182.99
2023-04-14T06:50:38.176Z,186.82
2023-04-14T06:51:38.190Z,191.13
2023-04-14T06:52:38.088Z,194.77
2023-04-14T06:53:38.158Z,207.16
2023-04-14T06:54:38.105Z,163.19
2023-04-14T06:55:38.100Z,163.62
2023-04-14T06:56:37.492Z,183.47
2023-04-14T06:57:38.137Z,190.05
2023-04-14T06:58:37.086Z,191.03
2023-04-14T06:59:38.042Z,190.30
2023-04-14T07:00:38.006Z,192.53
2023-04-14T07:01:37.477Z,190.56
2023-04-14T07:02:38.204Z,192.38
2023-04-14T07:03:37.418Z,191.29
2023-04-14T07:04:38.283Z,190.38
2023-04-14T07:05:39.997Z,189.56
2023-04-14T07:06:38.209Z,189.70
2023-04-14T07:07:39.837Z,189.73
2023-04-14T07:08:46.724Z,189.72
2023-04-14T07:09:38.171Z,190.14
2023-04-14T07:10:38.447Z,190.80
2023-04-14T07:11:38.160Z,191.11
2023-04-14T07:12:38.242Z,191.56
2023-04-14T07:13:38.483Z,190.35
2023-04-14T07:14:37.151Z,190.18
2023-04-14T07:15:38.148Z,191.84
2023-04-14T07:16:37.071Z,194.10
2023-04-14T07:17:37.110Z,191.91
2023-04-14T07:18:38.102Z,191.86
2023-04-14T07:19:38.092Z,189.92
2023-04-14T07:20:37.388Z,191.50
2023-04-14T07:21:38.038Z,188.99
2023-04-14T07:22:38.087Z,188.96
2023-04-14T07:23:38.004Z,188.36
2023-04-14T07:24:37.068Z,188.17
2023-04-14T07:25:38.021Z,185.87
2023-04-14T07:26:37.514Z,187.07
2023-04-14T07:27:37.046Z,186.71
2023-04-14T07:28:38.087Z,186.02
2023-04-14T07:29:37.976Z,190.86
2023-04-14T07:30:38.476Z,190.07
2023-04-14T07:31:38.190Z,189.81
2023-04-14T07:32:38.321Z,187.83
2023-04-14T07:33:38.054Z,188.03
2023-04-14T07:34:37.346Z,184.78
2023-04-14T07:35:40.267Z,186.71
2023-04-14T07:36:38.025Z,186.93
2023-04-14T07:37:36.903Z,187.58
2023-04-14T07:38:37.913Z,187.65
2023-04-14T07:39:37.893Z,187.86
2023-04-14T07:40:40.026Z,187.46
2023-04-14T07:41:36.927Z,186.79
2023-04-14T07:42:36.933Z,185.67
2023-04-14T07:43:37.903Z,186.89
2023-04-14T07:44:37.850Z,186.54
2023-04-14T07:45:36.843Z,188.68
2023-04-14T07:46:38.412Z,173.09
2023-04-14T07:47:37.999Z,144.64
2023-04-14T07:48:37.855Z,160.15
2023-04-14T07:49:37.829Z,170.02
2023-04-14T07:50:37.834Z,172.29
2023-04-14T07:51:38.362Z,169.20
2023-04-14T07:52:37.838Z,166.37
2023-04-14T07:53:37.780Z,163.65
2023-04-14T07:54:36.877Z,162.32
2023-04-14T07:55:37.777Z,157.37
2023-04-14T07:56:37.775Z,159.30
2023-04-14T07:57:37.831Z,153.76
2023-04-14T07:58:36.793Z,157.57
2023-04-14T07:59:37.735Z,154.11
2023-04-14T08:00:37.755Z,152.54
2023-04-14T08:01:36.828Z,152.38
2023-04-14T08:02:37.840Z,151.68
2023-04-14T08:03:38.094Z,151.25
2023-04-14T08:04:37.841Z,150.07
2023-04-14T08:05:37.948Z,147.74
2023-04-14T08:06:37.774Z,149.59
2023-04-14T08:07:36.756Z,150.46
2023-04-14T08:08:37.813Z,149.44
2023-04-14T08:09:37.752Z,149.53
2023-04-14T08:10:36.810Z,146.62
2023-04-14T08:11:37.755Z,149.48
2023-04-14T08:12:36.771Z,146.63
2023-04-14T08:13:36.839Z,146.83
2023-04-14T08:14:37.769Z,146.35
2023-04-14T08:15:37.750Z,146.96
2023-04-14T08:16:37.949Z,145.05
2023-04-14T08:17:36.749Z,141.69
2023-04-14T08:18:37.757Z,145.46
2023-04-14T08:19:37.789Z,143.64
2023-04-14T08:20:36.784Z,144.06
2023-04-14T08:21:36.837Z,142.95
2023-04-14T08:22:36.808Z,143.47
2023-04-14T08:23:37.817Z,142.10
2023-04-14T08:24:37.891Z,142.96
2023-04-14T08:25:36.821Z,142.68
2023-04-14T08:26:37.830Z,140.80
2023-04-14T08:27:37.836Z,143.56
2023-04-14T08:28:36.908Z,142.04
2023-04-14T08:29:36.963Z,140.67
2023-04-14T08:30:37.954Z,141.64
2023-04-14T08:31:38.029Z,141.29
2023-04-14T08:32:36.943Z,142.25
2023-04-14T08:33:36.927Z,139.10
2023-04-14T08:34:36.998Z,138.46
2023-04-14T08:35:41.998Z,138.03
2023-04-14T08:36:37.972Z,138.18
2023-04-14T08:37:37.962Z,138.13
2023-04-14T08:38:36.954Z,135.32
2023-04-14T08:39:37.006Z,138.57
2023-04-14T08:40:38.017Z,134.81
2023-04-14T08:41:38.350Z,135.60
2023-04-14T08:42:38.379Z,131.45
2023-04-14T08:43:37.081Z,151.08
2023-04-14T08:44:38.313Z,152.63
2023-04-14T08:45:38.224Z,159.71
2023-04-14T08:46:41.017Z,160.43
2023-04-14T08:47:38.200Z,176.15
2023-04-14T08:48:37.161Z,176.00
2023-04-14T08:49:37.136Z,178.10
2023-04-14T08:50:37.155Z,193.75
2023-04-14T08:51:37.328Z,194.90
2023-04-14T08:52:38.112Z,195.50
2023-04-14T08:53:37.204Z,199.29
2023-04-14T08:54:37.143Z,196.69
2023-04-14T08:55:38.125Z,199.58
2023-04-14T08:56:37.295Z,206.25
2023-04-14T08:57:37.113Z,206.18
2023-04-14T08:58:38.572Z,206.30
2023-04-14T08:59:38.069Z,210.27
2023-04-14T09:00:38.044Z,211.24
2023-04-14T09:01:38.356Z,208.77
2023-04-14T09:02:38.263Z,210.98
2023-04-14T09:03:38.142Z,209.11
2023-04-14T09:04:38.149Z,211.82
2023-04-14T09:05:38.065Z,210.68
2023-04-14T09:06:37.063Z,207.86
2023-04-14T09:07:38.033Z,207.46
2023-04-14T09:08:37.015Z,207.05
2023-04-14T09:09:37.023Z,208.61
2023-04-14T09:10:38.070Z,208.39
2023-04-14T09:11:38.040Z,206.38
2023-04-14T09:12:37.864Z,206.31
2023-04-14T09:13:37.029Z,207.28
2023-04-14T09:14:37.987Z,204.74
2023-04-14T09:15:38.062Z,203.74
2023-04-14T09:16:38.119Z,205.06
2023-04-14T09:17:37.005Z,205.44
2023-04-14T09:18:37.972Z,198.46
2023-04-14T09:19:37.981Z,197.14
2023-04-14T09:20:40.783Z,197.53
2023-04-14T09:21:52.334Z,197.56
2023-04-14T09:22:38.081Z,197.60
2023-04-14T09:23:37.948Z,198.63
2023-04-14T09:24:37.919Z,199.06
2023-04-14T09:25:37.029Z,194.61
2023-04-14T09:26:37.917Z,195.98
2023-04-14T09:27:37.939Z,190.89
2023-04-14T09:28:37.947Z,192.06
2023-04-14T09:29:37.888Z,188.15
2023-04-14T09:30:37.995Z,183.37
2023-04-14T09:31:38.417Z,183.52
2023-04-14T09:32:37.887Z,180.75
2023-04-14T09:33:36.972Z,175.67
2023-04-14T09:34:37.841Z,176.76
2023-04-14T09:35:36.826Z,175.22
2023-04-14T09:36:37.841Z,178.77
2023-04-14T09:37:37.920Z,173.11
2023-04-14T09:38:36.784Z,172.42
2023-04-14T09:39:37.811Z,175.73
2023-04-14T09:40:37.769Z,178.25
2023-04-14T09:41:37.786Z,177.81
2023-04-14T09:42:37.784Z,177.28
2023-04-14T09:43:37.794Z,169.58
2023-04-14T09:44:36.756Z,170.16
2023-04-14T09:45:36.762Z,171.49
2023-04-14T09:46:37.922Z,166.87
2023-04-14T09:47:37.831Z,167.72
2023-04-14T09:48:37.885Z,169.38
2023-04-14T09:49:37.756Z,176.79
2023-04-14T09:50:38.034Z,176.74
2023-04-14T09:51:37.844Z,181.33
2023-04-14T09:52:36.776Z,107.44
2023-04-14T09:53:36.786Z,3.13
2023-04-14T09:54:36.751Z,0.00
2023-04-14T09:55:37.706Z,38.87
2023-04-14T09:56:37.821Z,53.72
2023-04-14T09:57:37.673Z,63.15
2023-04-14T09:58:37.882Z,52.94
2023-04-14T09:59:37.718Z,44.79
2023-04-14T10:00:37.740Z,34.75
2023-04-14T10:01:38.077Z,23.38
2023-04-14T10:02:37.418Z,28.60
2023-04-14T10:03:43.847Z,53.62
2023-04-14T10:04:36.868Z,54.28
2023-04-14T10:05:37.812Z,58.22
2023-04-14T10:06:36.923Z,70.30
2023-04-14T10:07:37.794Z,85.76
2023-04-14T10:08:37.803Z,102.58
2023-04-14T10:09:36.792Z,108.55
2023-04-14T10:10:36.788Z,109.90
2023-04-14T10:11:36.769Z,111.13
2023-04-14T10:12:36.778Z,111.80
2023-04-14T10:13:37.761Z,115.59
2023-04-14T10:14:37.750Z,117.91
2023-04-14T10:15:37.839Z,124.15
2023-04-14T10:16:37.800Z,128.70
2023-04-14T10:17:37.760Z,131.57
2023-04-14T10:18:36.729Z,134.69
2023-04-14T10:19:37.895Z,139.57
2023-04-14T10:20:37.720Z,146.16
2023-04-14T10:21:36.710Z,149.54
2023-04-14T10:22:37.547Z,156.79
2023-04-14T10:23:37.683Z,163.01
2023-04-14T10:24:36.687Z,167.27
2023-04-14T10:25:36.686Z,171.92
2023-04-14T10:26:36.700Z,109.90
2023-04-14T10:27:37.742Z,50.00
2023-04-14T10:28:37.759Z,69.31
2023-04-14T10:29:37.798Z,91.62
2023-04-14T10:30:37.795Z,100.04
2023-04-14T10:31:37.921Z,111.94
2023-04-14T10:32:37.939Z,120.35
2023-04-14T10:33:37.921Z,125.18
2023-04-14T10:34:38.739Z,124.53
2023-04-14T10:35:37.934Z,127.88
2023-04-14T10:36:37.918Z,127.48
2023-04-14T10:37:37.927Z,127.90
2023-04-14T10:38:36.935Z,129.11
2023-04-14T10:39:36.896Z,130.92
2023-04-14T10:40:37.934Z,132.66
2023-04-14T10:41:37.892Z,133.67
2023-04-14T10:42:37.879Z,138.38
2023-04-14T10:43:37.883Z,141.36
2023-04-14T10:44:37.864Z,142.27
2023-04-14T10:45:37.860Z,147.59
2023-04-14T10:46:36.906Z,152.85
2023-04-14T10:47:36.868Z,151.66
2023-04-14T10:48:37.822Z,151.95
2023-04-14T10:49:37.829Z,151.06
2023-04-14T10:50:37.815Z,152.34
2023-04-14T10:51:37.804Z,149.71
2023-04-14T10:52:36.803Z,151.56
2023-04-14T10:53:37.790Z,150.45
2023-04-14T10:54:37.815Z,150.38
2023-04-14T10:55:46.617Z,149.76
2023-04-14T10:56:37.786Z,149.90
2023-04-14T10:57:38.816Z,150.31
2023-04-14T10:58:36.758Z,150.90
2023-04-14T10:59:37.747Z,148.93
2023-04-14T11:00:36.747Z,146.72
2023-04-14T11:01:37.776Z,144.90
2023-04-14T11:02:38.017Z,144.46
2023-04-14T11:03:37.887Z,144.90
2023-04-14T11:04:36.741Z,145.90
2023-04-14T11:05:36.716Z,144.15
2023-04-14T11:06:36.691Z,142.21
2023-04-14T11:07:36.716Z,144.41
2023-04-14T11:08:36.762Z,143.77
2023-04-14T11:09:37.781Z,143.23
2023-04-14T11:10:36.844Z,145.76
2023-04-14T11:11:37.845Z,147.09
2023-04-14T11:12:36.869Z,150.73
2023-04-14T11:13:36.961Z,152.98
2023-04-14T11:14:37.940Z,154.87
2023-04-14T11:15:36.936Z,154.59
2023-04-14T11:16:40.324Z,158.85
2023-04-14T11:17:38.065Z,159.11
2023-04-14T11:18:37.949Z,160.06
2023-04-14T11:19:37.947Z,162.13
2023-04-14T11:20:37.942Z,164.39
2023-04-14T11:21:36.923Z,167.61
2023-04-14T11:22:37.933Z,168.52
2023-04-14T11:23:37.956Z,163.94
2023-04-14T11:24:36.925Z,167.39
2023-04-14T11:25:37.901Z,169.60
2023-04-14T11:26:36.952Z,169.32
2023-04-14T11:27:37.902Z,168.88
2023-04-14T11:28:36.902Z,168.77
2023-04-14T11:29:37.908Z,168.25
2023-04-14T11:30:36.858Z,168.17
2023-04-14T11:31:36.897Z,169.88
2023-04-14T11:32:36.869Z,172.94
2023-04-14T11:33:37.887Z,171.31
2023-04-14T11:34:36.858Z,172.31
2023-04-14T11:35:37.829Z,174.01
2023-04-14T11:36:36.845Z,173.40
2023-04-14T11:37:37.870Z,175.09
2023-04-14T11:38:37.813Z,173.69
2023-04-14T11:39:37.830Z,176.08
2023-04-14T11:40:37.806Z,174.37
2023-04-14T11:41:36.795Z,177.22
2023-04-14T11:42:36.885Z,177.84
2023-04-14T11:43:36.779Z,177.38
2023-04-14T11:44:37.767Z,175.39
2023-04-14T11:45:37.821Z,175.60
2023-04-14T11:46:37.822Z,176.10
2023-04-14T11:47:36.780Z,174.70
2023-04-14T11:48:37.759Z,178.27
2023-04-14T11:49:36.731Z,176.37
2023-04-14T11:50:37.742Z,176.25
2023-04-14T11:51:37.797Z,177.24
2023-04-14T11:52:36.738Z,174.98
2023-04-14T11:53:36.706Z,175.24
2023-04-14T11:54:36.731Z,174.68
2023-04-14T11:55:37.706Z,175.49
2023-04-14T11:56:36.694Z,176.11
2023-04-14T11:57:36.688Z,174.90
2023-04-14T11:58:36.706Z,176.24
2023-04-14T11:59:36.700Z,172.81
2023-04-14T12:00:37.670Z,175.88
2023-04-14T12:01:37.716Z,176.84
2023-04-14T12:02:36.816Z,173.55
2023-04-14T12:03:37.851Z,175.76
2023-04-14T12:04:36.805Z,174.00
2023-04-14T12:05:36.676Z,174.68
2023-04-14T12:06:37.643Z,173.57
2023-04-14T12:07:37.660Z,173.29
2023-04-14T12:08:36.705Z,173.67
2023-04-14T12:09:37.745Z,173.94
2023-04-14T12:10:36.731Z,175.76
2023-04-14T12:11:36.734Z,172.29
2023-04-14T12:12:36.776Z,176.51
2023-04-14T12:13:36.840Z,179.57
2023-04-14T12:14:36.788Z,181.27
2023-04-14T12:15:36.928Z,180.12
2023-04-14T12:16:37.876Z,179.73
2023-04-14T12:17:37.442Z,181.87
2023-04-14T12:18:37.824Z,180.40
2023-04-14T12:19:36.815Z,181.50
2023-04-14T12:20:36.822Z,180.43
2023-04-14T12:21:37.819Z,181.16
2023-04-14T12:22:37.885Z,183.97
2023-04-14T12:23:37.890Z,183.05
2023-04-14T12:24:36.961Z,184.65
2023-04-14T12:25:37.014Z,186.15
2023-04-14T12:26:38.044Z,187.45
2023-04-14T12:27:37.076Z,187.31
2023-04-14T12:28:37.086Z,189.56
2023-04-14T12:29:37.104Z,186.88
2023-04-14T12:30:38.102Z,186.77
2023-04-14T12:31:38.127Z,187.73
2023-04-14T12:32:37.123Z,185.13
2023-04-14T12:33:38.071Z,189.93
2023-04-14T12:34:37.066Z,188.83
2023-04-14T12:35:38.071Z,188.51
2023-04-14T12:36:49.558Z,188.39
2023-04-14T12:37:38.070Z,188.62
2023-04-14T12:38:38.086Z,189.17
2023-04-14T12:39:37.048Z,188.58
2023-04-14T12:40:37.038Z,188.94